Terminal Aerodrome Forecast
Issued by NWS Binghamton, NY

Home | Current Version | Previous Version | Text Only | Print | Product List | Glossary On
Versions: 1 2 3 4 5 6 7 8 9 10 11 12 13 14 15 16 17 18
000
FTUS41 KBGM 202300 RRA
TAFSYR
TAF
KSYR 202350Z 2100/2124 17010G20KT P6SM SCT040
      TEMPO 2108/2112 BKN040
     FM211400 21015G25KT P6SM OVC045 PROB30 2117/2121 3SM SHRA BR
      OVC025
     FM212100 28008KT P6SM SCT025 BKN070=

USA.gov is the U.S. government's official web portal to all federal, state and local government web resources and services.